Terminal Aerodrome Forecast
Issued by NWS

Current Version | Previous Version | Text Only | Print | Product List | Glossary Off
Versions: 1 2 3 4 5 6 7 8 9 10 11 12 13 14 15 16 17 18 19 20 21 22 23 24 25 26 27 28

000
FTUS41 KRNK 081140
TAFLWB
TAF
KLWB 081140Z 0812/0912 00000KT P6SM SCT090 BKN150
     FM081400 VRB03KT 6SM -SN SCT035 OVC050
     FM081600 16005KT 4SM -RASN BR SCT020 OVC030
      TEMPO 0816/0818 1SM -SN BR OVC018
     FM082000 26006KT 6SM -SHSN OVC020
     FM090300 27009G17KT 3SM -SHSN SCT007 OVC012=

USA.gov is the U.S. government's official web portal to all federal, state and local government web resources and services.